Friona, TX (79035)

6:34 PM CDT on March 30, 2015 (GMT -0500)
RAWS | | Change Station
CLOSE
Current Station
Personal Weather Station
Location: Friona, TX
Elevation: 4058 ft
Nearby Weather Stations

Elev 4058 ft 34.83 °N, 102.81 °W | Updated 31 minutes ago

Partly Cloudy
Partly Cloudy
76 °F
Feels Like 77 °F
N
11
Wind Variable Wind from South
Gusts 25.0 mph

Today
High -- | Low -- °F
--% Chance of Precip.
Yesterday
High -- | Low -- °F
Precip. -- in
7:40 AM 8:10 PM
Waxing Gibbous, 83% visible
Pressure 30.05 in
Visibility 10.0 miles
Clouds Clear
Heat Index 77 °F
Dew Point 36 °F
Humidity 23%
Rainfall in
Snow Depth Not available.
UV 2 out of 12
Pollen 11.80 out of 12
Air Quality Not available.
Flu Activity Not available.
METAR KCVN 302315Z AUTO 21011G18KT 10SM CLR 26/01 A3005 RMK AO1

More Conditions Fewer Conditions

Pressure 30.05 in
Visibility 10.0 miles
Clouds Clear
Heat Index 77 °F
Dew Point 36 °F
Humidity 23%
Rainfall in
Snow Depth Not available.
UV 2 out of 12
Pollen 11.80 out of 12
Air Quality Not available.
Flu Activity Not available.
METAR KCVN 302315Z AUTO 21011G18KT 10SM CLR 26/01 A3005 RMK AO1

More Conditions Fewer Conditions

10-Day Weather Forecast

Almanac

Astronomy

Mar. 30, 2015 Rise Set
Actual Time
Civil Twilight
Nautical Twilight
Astronomical Twilight
Moon
Length of Visible Light
Length of Day
Tomorrow will be .
, % of the Moon is Illuminated

Today's Extremes

State Highs State Lows

Community

WunderPhotos

Upload Photos

1,809,618 photos uploaded!

WunderBlogs® & News

Nearby

Air Quality

  Air Quality AQ Index Pollutant
Not available.

Snow Depth

Station Depth Elevation

Earthquake Activity

City Distance Mag. Time & Date
Minimum magnitude displayed is 2.5.

Coastal Water Temperatures

Place Temperature

Stations

Nearby Weather Stations

Station Location Temp. Windchill Dew Point Humidity Wind Precip. Elev Updated Type